Time;durP1;ratioP1;P1;durP2;ratioP2;P2;SDS_P1;SDS_P2;PMS_P1;PMS_P2;Temp;Humidity;BMP_temperature;BMP_pressure;BME280_temperature;BME280_humidity;BME280_pressure;Samples;Min_cycle;Max_cycle;Signal;HPM_P1;HPM_P2
2023/07/30 00:00:28;;;;;;;;;;;22.40;80.90;;;;;;4160636;28;20070;-52
2023/07/30 00:03:09;;;;;;;;;;;22.40;80.80;;;;;;4185675;28;19952;-50
2023/07/30 00:05:55;;;;;;;;;;;22.40;80.80;;;;;;4188314;28;19973;-50
2023/07/30 00:08:36;;;;;;;;;;;22.40;80.90;;;;;;4188018;28;20488;-52
2023/07/30 00:11:16;;;;;;;;;;;22.40;80.90;;;;;;4187957;28;20020;-53
2023/07/30 00:13:57;;;;;;;;;;;22.40;80.90;;;;;;4162970;28;20441;-48
2023/07/30 00:16:37;;;;;;;;;;;22.40;80.90;;;;;;4188566;28;19938;-49
2023/07/30 00:19:18;;;;;;;;;;;22.40;80.90;;;;;;4187525;28;20034;-52
2023/07/30 00:22:00;;;;;;;;;;;22.30;80.90;;;;;;4186956;28;19931;-46
2023/07/30 00:24:41;;;;;;;;;;;22.30;80.90;;;;;;4171771;28;19940;-42
2023/07/30 00:27:22;;;;;;;;;;;22.30;80.90;;;;;;4169359;28;19935;-51
2023/07/30 00:30:04;;;;;;;;;;;22.30;81.80;;;;;;4171153;28;19986;-52
2023/07/30 00:32:45;;;;;;;;;;;22.40;81.00;;;;;;4159296;28;20383;-44
2023/07/30 00:35:26;;;;;;;;;;;22.30;81.00;;;;;;4154588;28;20147;-46
2023/07/30 00:38:08;;;;;;;;;;;22.30;81.00;;;;;;4142739;28;19936;-46
2023/07/30 00:40:49;;;;;;;;;;;22.30;81.00;;;;;;4154945;28;20288;-47
2023/07/30 00:43:29;;;;;;;;;;;22.30;81.10;;;;;;4158772;28;19948;-46
2023/07/30 00:46:10;;;;;;;;;;;22.30;81.20;;;;;;4186812;28;19935;-51
2023/07/30 00:48:51;;;;;;;;;;;22.30;81.20;;;;;;4187652;28;19954;-49
2023/07/30 00:51:32;;;;;;;;;;;22.30;81.20;;;;;;4172895;28;19977;-49
2023/07/30 00:54:14;;;;;;;;;;;22.30;81.20;;;;;;4169581;28;20483;-44
2023/07/30 00:56:56;;;;;;;;;;;22.30;81.30;;;;;;4168249;28;19932;-45
2023/07/30 00:59:37;;;;;;;;;;;22.20;81.20;;;;;;4169453;28;20391;-46
2023/07/30 01:02:18;;;;;;;;;;;22.20;81.30;;;;;;4154474;28;19936;-47
2023/07/30 01:05:00;;;;;;;;;;;22.20;82.10;;;;;;4169650;28;19983;-49
2023/07/30 01:07:41;;;;;;;;;;;22.20;81.30;;;;;;4165041;28;19936;-48
2023/07/30 01:10:25;;;;;;;;;;;22.20;81.30;;;;;;4157576;28;20391;-57
2023/07/30 01:13:06;;;;;;;;;;;22.20;82.20;;;;;;4155486;28;19968;-46
2023/07/30 01:15:48;;;;;;;;;;;22.20;81.40;;;;;;4144028;28;19972;-49
2023/07/30 01:18:28;;;;;;;;;;;22.20;81.40;;;;;;4154699;28;19932;-44
2023/07/30 01:21:11;;;;;;;;;;;22.20;81.40;;;;;;4169773;28;19932;-48
2023/07/30 01:23:52;;;;;;;;;;;22.20;81.40;;;;;;4170528;28;19978;-47
2023/07/30 01:26:37;;;;;;;;;;;22.20;81.40;;;;;;4187671;28;19971;-46
2023/07/30 01:29:29;;;;;;;;;;;22.20;81.50;;;;;;4174863;28;20017;-46
2023/07/30 01:32:12;;;;;;;;;;;22.20;81.50;;;;;;4170984;28;19940;-49
2023/07/30 01:34:53;;;;;;;;;;;22.20;81.50;;;;;;4154640;28;19990;-52
2023/07/30 01:37:37;;;;;;;;;;;22.20;81.50;;;;;;4154816;28;19933;-54
2023/07/30 01:40:18;;;;;;;;;;;22.20;81.50;;;;;;4158072;28;19931;-50
2023/07/30 01:42:59;;;;;;;;;;;22.10;81.50;;;;;;4170109;28;19956;-51
2023/07/30 01:45:41;;;;;;;;;;;22.10;81.50;;;;;;4160125;28;20022;-53
2023/07/30 01:48:21;;;;;;;;;;;22.10;81.50;;;;;;4167738;28;19935;-51
2023/07/30 01:51:02;;;;;;;;;;;22.10;82.30;;;;;;4170722;28;19932;-51
2023/07/30 01:53:44;;;;;;;;;;;22.10;81.50;;;;;;4169949;28;19936;-54
2023/07/30 01:56:25;;;;;;;;;;;22.10;81.50;;;;;;4146020;28;19931;-58
2023/07/30 01:59:05;;;;;;;;;;;22.10;81.50;;;;;;4155742;28;20393;-58
2023/07/30 02:01:47;;;;;;;;;;;22.10;81.60;;;;;;4170200;28;19935;-53
2023/07/30 02:04:28;;;;;;;;;;;22.10;81.60;;;;;;4169112;28;20033;-53
2023/07/30 02:07:08;;;;;;;;;;;22.00;81.50;;;;;;4169300;28;19952;-52
2023/07/30 02:09:51;;;;;;;;;;;22.00;81.60;;;;;;4152191;28;20341;-45
2023/07/30 02:12:31;;;;;;;;;;;22.00;81.60;;;;;;4174050;28;19935;-46
2023/07/30 02:15:12;;;;;;;;;;;22.10;81.70;;;;;;4146089;28;19935;-46
2023/07/30 02:17:54;;;;;;;;;;;22.00;81.70;;;;;;4158418;28;19977;-43
2023/07/30 02:20:34;;;;;;;;;;;22.00;81.70;;;;;;4168750;28;19936;-43
2023/07/30 02:23:16;;;;;;;;;;;22.00;81.70;;;;;;4153607;28;20684;-44
2023/07/30 02:25:59;;;;;;;;;;;22.00;82.60;;;;;;4166800;28;20018;-43
2023/07/30 02:28:40;;;;;;;;;;;22.00;81.80;;;;;;4143366;28;19939;-44
2023/07/30 02:31:20;;;;;;;;;;;22.00;81.80;;;;;;4153534;28;20067;-47
2023/07/30 02:34:01;;;;;;;;;;;22.00;81.80;;;;;;4167085;28;19979;-51
2023/07/30 02:36:45;;;;;;;;;;;22.00;81.80;;;;;;4169600;28;20395;-50
2023/07/30 02:39:25;;;;;;;;;;;22.00;82.10;;;;;;4169484;28;20392;-49
2023/07/30 02:42:08;;;;;;;;;;;21.90;82.70;;;;;;4170155;28;20101;-51
2023/07/30 02:44:48;;;;;;;;;;;21.90;81.80;;;;;;4157152;28;19939;-52
2023/07/30 02:47:29;;;;;;;;;;;22.00;81.90;;;;;;4174096;28;19932;-47
2023/07/30 02:50:10;;;;;;;;;;;21.90;82.80;;;;;;4173041;28;19932;-42
2023/07/30 02:52:51;;;;;;;;;;;21.90;81.90;;;;;;4151548;28;19967;-48
2023/07/30 02:55:32;;;;;;;;;;;21.90;82.00;;;;;;4155417;28;19936;-48
2023/07/30 02:58:14;;;;;;;;;;;22.00;82.90;;;;;;4156638;28;19965;-44
2023/07/30 03:00:55;;;;;;;;;;;22.00;82.10;;;;;;4170195;28;19935;-45
2023/07/30 03:03:36;;;;;;;;;;;21.90;82.10;;;;;;4159459;28;19939;-47
2023/07/30 03:06:17;;;;;;;;;;;21.90;82.10;;;;;;4172738;28;19974;-53
2023/07/30 03:08:58;;;;;;;;;;;21.90;82.10;;;;;;4172317;28;20038;-55
2023/07/30 03:11:39;;;;;;;;;;;21.90;82.10;;;;;;4172318;28;19932;-54
2023/07/30 03:14:21;;;;;;;;;;;21.90;82.10;;;;;;4172717;28;20351;-48
2023/07/30 03:17:02;;;;;;;;;;;21.90;82.20;;;;;;4172136;28;19932;-45
2023/07/30 03:19:43;;;;;;;;;;;21.90;82.10;;;;;;4159537;28;20487;-53
2023/07/30 03:22:24;;;;;;;;;;;21.90;82.20;;;;;;4137166;28;19984;-50
2023/07/30 03:25:05;;;;;;;;;;;21.90;83.00;;;;;;4156402;28;19959;-53
2023/07/30 03:27:46;;;;;;;;;;;21.80;82.10;;;;;;4162143;28;19932;-53
2023/07/30 03:30:28;;;;;;;;;;;21.90;82.10;;;;;;4148975;28;20363;-50
2023/07/30 03:33:10;;;;;;;;;;;21.80;82.10;;;;;;4164762;28;19935;-52
2023/07/30 03:35:51;;;;;;;;;;;21.80;82.10;;;;;;4188906;28;19931;-52
2023/07/30 03:38:31;;;;;;;;;;;21.90;82.10;;;;;;4176747;28;19935;-51
2023/07/30 03:41:12;;;;;;;;;;;21.80;82.00;;;;;;4139631;28;19931;-51
2023/07/30 03:43:53;;;;;;;;;;;21.80;82.00;;;;;;4172138;28;20067;-53
2023/07/30 03:46:35;;;;;;;;;;;21.80;82.00;;;;;;4160070;28;19990;-49
2023/07/30 03:49:16;;;;;;;;;;;21.80;82.00;;;;;;4171082;28;20279;-51
2023/07/30 03:51:56;;;;;;;;;;;21.80;82.10;;;;;;4140535;28;20041;-51
2023/07/30 03:54:37;;;;;;;;;;;21.80;82.00;;;;;;4171841;28;19932;-50
2023/07/30 03:57:18;;;;;;;;;;;21.70;81.90;;;;;;4159593;28;19971;-51
2023/07/30 03:59:59;;;;;;;;;;;21.80;82.80;;;;;;4147103;28;19932;-50
2023/07/30 04:02:41;;;;;;;;;;;21.70;81.90;;;;;;4176043;28;20263;-50
2023/07/30 04:05:22;;;;;;;;;;;21.70;82.00;;;;;;4199509;28;19951;-51
2023/07/30 04:08:03;;;;;;;;;;;21.70;82.00;;;;;;4169787;28;19931;-49
2023/07/30 04:10:44;;;;;;;;;;;21.70;81.90;;;;;;4161610;28;19936;-49
2023/07/30 04:13:25;;;;;;;;;;;21.70;81.90;;;;;;4166170;28;19987;-52
2023/07/30 04:16:06;;;;;;;;;;;21.70;82.00;;;;;;4160966;28;19936;-45
2023/07/30 04:18:48;;;;;;;;;;;21.70;81.90;;;;;;4165079;28;19936;-44
2023/07/30 04:21:29;;;;;;;;;;;21.70;81.90;;;;;;4131818;28;19994;-44
2023/07/30 04:24:10;;;;;;;;;;;21.70;81.90;;;;;;4154449;28;19990;-47
2023/07/30 04:26:51;;;;;;;;;;;21.70;81.90;;;;;;4154298;28;19932;-48
2023/07/30 04:29:32;;;;;;;;;;;21.70;81.90;;;;;;4147490;28;20383;-47
2023/07/30 04:32:12;;;;;;;;;;;21.70;81.90;;;;;;4158914;28;19936;-47
2023/07/30 04:34:55;;;;;;;;;;;21.70;81.90;;;;;;4166585;28;19932;-43
2023/07/30 04:37:35;;;;;;;;;;;21.70;81.90;;;;;;4169619;28;19935;-49
2023/07/30 04:40:17;;;;;;;;;;;21.70;81.90;;;;;;4154632;28;19995;-48
2023/07/30 04:42:57;;;;;;;;;;;21.70;82.10;;;;;;4159618;28;19931;-46
2023/07/30 04:45:38;;;;;;;;;;;21.70;82.20;;;;;;4159412;28;19959;-45
2023/07/30 04:48:20;;;;;;;;;;;21.70;82.10;;;;;;4170451;28;20280;-43
2023/07/30 04:51:03;;;;;;;;;;;21.70;82.10;;;;;;4158138;28;20486;-55
2023/07/30 04:53:45;;;;;;;;;;;21.70;82.10;;;;;;4168560;28;19939;-55
2023/07/30 04:56:26;;;;;;;;;;;21.70;82.00;;;;;;4181514;28;19931;-54
2023/07/30 04:59:08;;;;;;;;;;;21.70;82.00;;;;;;4158641;28;19952;-51
2023/07/30 05:01:48;;;;;;;;;;;21.70;82.10;;;;;;4148320;28;19995;-53
2023/07/30 05:04:29;;;;;;;;;;;21.70;82.10;;;;;;4142147;28;19944;-53
2023/07/30 05:07:12;;;;;;;;;;;21.70;82.10;;;;;;4154230;28;19988;-54
2023/07/30 05:09:52;;;;;;;;;;;21.70;82.00;;;;;;4171143;28;20399;-50
2023/07/30 05:12:33;;;;;;;;;;;21.70;82.00;;;;;;4171591;28;20331;-52
2023/07/30 05:15:14;;;;;;;;;;;21.70;82.00;;;;;;4146346;28;19948;-50
2023/07/30 05:17:55;;;;;;;;;;;21.70;81.80;;;;;;4158965;28;20292;-43
2023/07/30 05:20:36;;;;;;;;;;;21.70;81.80;;;;;;4155843;28;20439;-45
2023/07/30 05:23:18;;;;;;;;;;;21.70;81.80;;;;;;4170315;28;19932;-44
2023/07/30 05:25:59;;;;;;;;;;;21.70;81.80;;;;;;4170686;28;19942;-43
2023/07/30 05:28:39;;;;;;;;;;;21.70;81.80;;;;;;4157241;28;19943;-43
2023/07/30 05:31:21;;;;;;;;;;;21.70;81.80;;;;;;4169237;28;19966;-45
2023/07/30 05:34:02;;;;;;;;;;;21.60;81.70;;;;;;4170248;28;19936;-43
2023/07/30 05:36:42;;;;;;;;;;;21.60;81.70;;;;;;4170522;28;19932;-43
2023/07/30 05:39:25;;;;;;;;;;;21.60;81.60;;;;;;4169417;28;20421;-47
2023/07/30 05:42:06;;;;;;;;;;;21.60;81.70;;;;;;4159566;28;20031;-43
2023/07/30 05:44:47;;;;;;;;;;;21.60;81.60;;;;;;4167995;28;20005;-47
2023/07/30 05:47:27;;;;;;;;;;;21.60;81.60;;;;;;4156567;28;20848;-50
2023/07/30 05:50:09;;;;;;;;;;;21.50;81.60;;;;;;4170641;28;20433;-44
2023/07/30 05:52:50;;;;;;;;;;;21.50;81.60;;;;;;4156825;28;19933;-43
2023/07/30 05:55:31;;;;;;;;;;;21.50;81.60;;;;;;4169050;28;20019;-43
2023/07/30 05:58:12;;;;;;;;;;;21.50;81.60;;;;;;4170171;28;19982;-47
2023/07/30 06:00:53;;;;;;;;;;;21.50;81.60;;;;;;4158951;28;20063;-44
2023/07/30 06:03:33;;;;;;;;;;;21.50;81.60;;;;;;4154474;28;19936;-47
2023/07/30 06:06:15;;;;;;;;;;;21.50;81.60;;;;;;4164801;28;19936;-44
2023/07/30 06:08:55;;;;;;;;;;;21.50;81.60;;;;;;4153615;28;19939;-41
2023/07/30 06:11:37;;;;;;;;;;;21.50;81.60;;;;;;4169930;28;19981;-44
2023/07/30 06:14:18;;;;;;;;;;;21.50;81.60;;;;;;4169812;28;20033;-43
2023/07/30 06:16:59;;;;;;;;;;;21.50;81.60;;;;;;4150454;28;20004;-41
2023/07/30 06:19:40;;;;;;;;;;;21.40;81.50;;;;;;4153372;28;19933;-46
2023/07/30 06:22:21;;;;;;;;;;;21.40;81.50;;;;;;4173709;28;20491;-46
2023/07/30 06:25:02;;;;;;;;;;;21.40;81.60;;;;;;4178531;28;19935;-42
2023/07/30 06:27:44;;;;;;;;;;;21.40;81.60;;;;;;4171656;28;19961;-42
2023/07/30 06:30:25;;;;;;;;;;;21.40;81.60;;;;;;4160413;28;19936;-44
2023/07/30 06:33:06;;;;;;;;;;;21.40;81.70;;;;;;4173323;28;19967;-47
2023/07/30 06:35:47;;;;;;;;;;;21.40;81.70;;;;;;4172359;28;19931;-45
2023/07/30 06:38:28;;;;;;;;;;;21.40;81.70;;;;;;4171438;28;19935;-44
2023/07/30 06:41:09;;;;;;;;;;;21.40;81.70;;;;;;4173691;28;19967;-44
2023/07/30 06:43:51;;;;;;;;;;;21.40;81.70;;;;;;4173463;28;19931;-57
2023/07/30 06:46:32;;;;;;;;;;;21.40;81.70;;;;;;4173016;28;20055;-45
2023/07/30 06:49:13;;;;;;;;;;;21.40;82.60;;;;;;4156920;28;19932;-45
2023/07/30 06:51:54;;;;;;;;;;;21.40;81.70;;;;;;4176301;28;19982;-45
2023/07/30 06:54:35;;;;;;;;;;;21.40;81.70;;;;;;4172380;28;19950;-42
2023/07/30 06:57:18;;;;;;;;;;;21.40;81.70;;;;;;4173091;28;19931;-46
2023/07/30 07:00:02;;;;;;;;;;;21.40;81.70;;;;;;4155408;28;19940;-46
2023/07/30 07:02:45;;;;;;;;;;;21.40;81.70;;;;;;4172102;28;20009;-44
2023/07/30 07:05:26;;;;;;;;;;;21.40;81.70;;;;;;4157831;28;19994;-41
2023/07/30 07:08:07;;;;;;;;;;;21.30;81.80;;;;;;4169122;28;19936;-50
2023/07/30 07:10:48;;;;;;;;;;;21.40;83.30;;;;;;4144253;28;20339;-53
2023/07/30 07:13:29;;;;;;;;;;;21.40;85.10;;;;;;4156933;28;19944;-57
2023/07/30 07:16:11;;;;;;;;;;;21.40;85.60;;;;;;4159603;28;19940;-45
2023/07/30 07:18:52;;;;;;;;;;;21.50;85.10;;;;;;4169362;28;19936;-45
2023/07/30 07:21:32;;;;;;;;;;;21.50;84.50;;;;;;4170919;28;19932;-45
2023/07/30 07:24:13;;;;;;;;;;;21.50;83.90;;;;;;4171767;28;20041;-56
2023/07/30 07:26:54;;;;;;;;;;;21.50;83.50;;;;;;4171486;28;19932;-47
2023/07/30 07:29:35;;;;;;;;;;;21.60;83.20;;;;;;4173071;28;19935;-45
2023/07/30 07:32:17;;;;;;;;;;;21.60;83.00;;;;;;4171779;28;19943;-45
2023/07/30 07:34:57;;;;;;;;;;;21.60;82.70;;;;;;4159326;28;20395;-45
2023/07/30 07:37:38;;;;;;;;;;;21.60;82.50;;;;;;4155809;28;19983;-43
2023/07/30 07:40:19;;;;;;;;;;;21.60;82.30;;;;;;4141924;28;19948;-57
2023/07/30 07:43:00;;;;;;;;;;;21.60;82.20;;;;;;4149623;28;19937;-55
2023/07/30 07:45:41;;;;;;;;;;;21.60;82.10;;;;;;4151306;28;19933;-56
2023/07/30 07:48:23;;;;;;;;;;;21.70;81.80;;;;;;4184737;28;19938;-54
2023/07/30 07:51:04;;;;;;;;;;;21.70;81.70;;;;;;4165298;28;19948;-47
2023/07/30 07:53:44;;;;;;;;;;;21.80;81.50;;;;;;4155788;28;19948;-45
2023/07/30 07:56:25;;;;;;;;;;;21.80;81.40;;;;;;4157898;28;19999;-44
2023/07/30 07:59:06;;;;;;;;;;;21.80;81.30;;;;;;4158549;28;19947;-45
2023/07/30 08:01:46;;;;;;;;;;;21.90;81.30;;;;;;4163686;28;19936;-44
2023/07/30 08:04:28;;;;;;;;;;;21.90;81.20;;;;;;4158675;28;19931;-45
2023/07/30 08:07:09;;;;;;;;;;;21.90;81.20;;;;;;4170962;28;20023;-44
2023/07/30 08:09:51;;;;;;;;;;;22.00;81.20;;;;;;4171247;28;19978;-44
2023/07/30 08:12:32;;;;;;;;;;;22.00;81.00;;;;;;4148492;28;19931;-43
2023/07/30 08:15:13;;;;;;;;;;;22.00;80.80;;;;;;4170691;28;20061;-44
2023/07/30 08:17:54;;;;;;;;;;;22.10;80.60;;;;;;4171873;28;20069;-44
2023/07/30 08:20:36;;;;;;;;;;;22.10;80.10;;;;;;4171916;28;19935;-56
2023/07/30 08:23:17;;;;;;;;;;;22.10;79.70;;;;;;4171734;28;19961;-57
2023/07/30 08:25:57;;;;;;;;;;;22.10;79.30;;;;;;4182095;28;19932;-52
2023/07/30 08:28:38;;;;;;;;;;;22.10;78.90;;;;;;4170229;28;20026;-53
2023/07/30 08:31:19;;;;;;;;;;;22.10;78.60;;;;;;4169515;28;19974;-56
2023/07/30 08:34:00;;;;;;;;;;;22.10;78.50;;;;;;4171353;28;19932;-57
2023/07/30 08:36:42;;;;;;;;;;;22.10;78.40;;;;;;4170478;28;19935;-45
2023/07/30 08:39:23;;;;;;;;;;;22.00;78.30;;;;;;4172117;28;20029;-45
2023/07/30 08:42:04;;;;;;;;;;;22.00;78.10;;;;;;4168530;28;19999;-45
2023/07/30 08:44:44;;;;;;;;;;;22.00;77.80;;;;;;4171323;28;19932;-45
2023/07/30 08:47:26;;;;;;;;;;;22.00;77.30;;;;;;4170017;28;19932;-48
2023/07/30 08:50:07;;;;;;;;;;;22.00;76.80;;;;;;4158825;28;20394;-55
2023/07/30 08:52:49;;;;;;;;;;;22.00;76.50;;;;;;4169800;28;19936;-56
2023/07/30 08:55:33;;;;;;;;;;;21.90;75.90;;;;;;4153220;28;19948;-55
2023/07/30 08:58:17;;;;;;;;;;;21.90;75.60;;;;;;4145143;28;19964;-45
2023/07/30 09:00:58;;;;;;;;;;;21.90;75.20;;;;;;4162397;28;19931;-57
2023/07/30 09:03:40;;;;;;;;;;;21.90;74.70;;;;;;4168644;28;19943;-57
2023/07/30 09:06:20;;;;;;;;;;;21.80;74.50;;;;;;4170081;28;19931;-55
2023/07/30 09:09:03;;;;;;;;;;;21.80;74.30;;;;;;4164525;28;19935;-56
2023/07/30 09:11:44;;;;;;;;;;;21.80;74.20;;;;;;4137260;28;20052;-56
2023/07/30 09:14:26;;;;;;;;;;;21.80;74.00;;;;;;4164244;28;20066;-56
2023/07/30 09:17:07;;;;;;;;;;;21.80;75.10;;;;;;4154468;28;19952;-53
2023/07/30 09:19:50;;;;;;;;;;;21.80;74.50;;;;;;4168949;28;19932;-55
2023/07/30 09:22:33;;;;;;;;;;;21.80;74.30;;;;;;4147707;28;19935;-56
2023/07/30 09:25:20;;;;;;;;;;;21.80;74.00;;;;;;4153664;28;20392;-43
2023/07/30 09:28:01;;;;;;;;;;;21.80;73.60;;;;;;4154572;28;19948;-55
2023/07/30 09:30:42;;;;;;;;;;;21.80;74.20;;;;;;4153964;28;20022;-53
2023/07/30 09:33:22;;;;;;;;;;;21.90;73.10;;;;;;4147131;28;19932;-56
2023/07/30 09:36:04;;;;;;;;;;;21.90;72.90;;;;;;4186823;28;20390;-55
2023/07/30 09:38:45;;;;;;;;;;;21.90;73.70;;;;;;4187549;28;20291;-57
2023/07/30 09:41:28;;;;;;;;;;;21.90;72.60;;;;;;4186943;28;20014;-53
2023/07/30 09:44:09;;;;;;;;;;;21.90;72.30;;;;;;4171546;28;19932;-55
2023/07/30 09:46:50;;;;;;;;;;;21.90;72.30;;;;;;4169370;28;19935;-53
2023/07/30 09:49:31;;;;;;;;;;;21.90;72.40;;;;;;4169922;28;20335;-46
2023/07/30 09:52:12;;;;;;;;;;;21.80;72.60;;;;;;4169660;28;19935;-59
2023/07/30 09:54:54;;;;;;;;;;;21.80;73.70;;;;;;4168028;28;19961;-55
2023/07/30 09:57:36;;;;;;;;;;;21.80;73.20;;;;;;4168303;28;20341;-55
2023/07/30 10:00:17;;;;;;;;;;;21.80;73.50;;;;;;4170994;28;19932;-57
2023/07/30 10:02:59;;;;;;;;;;;21.80;73.70;;;;;;4165407;28;20414;-56
2023/07/30 10:05:40;;;;;;;;;;;21.80;74.10;;;;;;4167732;28;19935;-56
2023/07/30 10:08:24;;;;;;;;;;;21.80;74.30;;;;;;4168120;28;19935;-44
2023/07/30 10:11:06;;;;;;;;;;;21.80;74.60;;;;;;4186702;28;20018;-46
2023/07/30 10:13:49;;;;;;;;;;;21.80;74.80;;;;;;4182162;28;20410;-46
2023/07/30 10:16:30;;;;;;;;;;;21.80;76.00;;;;;;4163294;28;20597;-43
2023/07/30 10:19:11;;;;;;;;;;;21.80;75.30;;;;;;4141529;28;20041;-55
2023/07/30 10:21:52;;;;;;;;;;;21.80;75.20;;;;;;4159602;28;19935;-56
2023/07/30 10:24:33;;;;;;;;;;;21.80;76.00;;;;;;4169902;28;19936;-53
2023/07/30 10:27:23;;;;;;;;;;;21.80;75.10;;;;;;4154854;28;20004;-55
2023/07/30 10:30:13;;;;;;;;;;;21.80;75.10;;;;;;4185531;28;19935;-54
2023/07/30 10:33:01;;;;;;;;;;;21.80;75.10;;;;;;4173693;28;19936;-56
2023/07/30 10:35:42;;;;;;;;;;;21.80;75.10;;;;;;4186197;28;19950;-56
2023/07/30 10:38:29;;;;;;;;;;;21.80;75.10;;;;;;4176716;28;20288;-56
2023/07/30 10:41:11;;;;;;;;;;;21.80;75.20;;;;;;4153208;28;19978;-53
2023/07/30 10:43:53;;;;;;;;;;;21.80;76.00;;;;;;4140941;28;20268;-56
2023/07/30 10:46:35;;;;;;;;;;;21.80;75.20;;;;;;4186004;28;20066;-54
2023/07/30 10:49:16;;;;;;;;;;;21.80;75.10;;;;;;4184487;28;19932;-57
2023/07/30 10:51:58;;;;;;;;;;;21.80;75.00;;;;;;4168150;28;19954;-53
2023/07/30 10:54:39;;;;;;;;;;;21.80;75.00;;;;;;4141817;28;19935;-55
2023/07/30 10:57:20;;;;;;;;;;;21.80;75.00;;;;;;4166531;28;20018;-55
2023/07/30 11:00:01;;;;;;;;;;;21.80;75.00;;;;;;4167744;28;19950;-55
2023/07/30 11:02:53;;;;;;;;;;;21.80;75.10;;;;;;4166889;28;20668;-55
2023/07/30 11:05:34;;;;;;;;;;;21.80;75.40;;;;;;4171018;28;19933;-55
2023/07/30 11:08:15;;;;;;;;;;;21.80;75.70;;;;;;4172891;28;19935;-55
2023/07/30 11:10:56;;;;;;;;;;;21.90;76.10;;;;;;4158623;28;20014;-53
2023/07/30 11:13:37;;;;;;;;;;;21.80;76.40;;;;;;4172516;28;19958;-51
2023/07/30 11:16:18;;;;;;;;;;;21.90;76.60;;;;;;4189101;28;19936;-53
2023/07/30 11:19:01;;;;;;;;;;;21.90;76.80;;;;;;4175825;28;20017;-51
2023/07/30 11:21:45;;;;;;;;;;;21.90;76.90;;;;;;4176975;28;20055;-55
2023/07/30 11:24:34;;;;;;;;;;;22.00;77.00;;;;;;4186037;28;20030;-54
2023/07/30 11:27:14;;;;;;;;;;;22.00;77.00;;;;;;4172148;28;20267;-56
2023/07/30 11:29:56;;;;;;;;;;;22.00;77.00;;;;;;4162889;28;20010;-46
2023/07/30 11:32:37;;;;;;;;;;;22.00;77.00;;;;;;4172694;28;19932;-43
2023/07/30 11:35:19;;;;;;;;;;;22.10;77.00;;;;;;4159707;28;19954;-50
2023/07/30 11:38:00;;;;;;;;;;;22.10;77.00;;;;;;4177703;28;20064;-44
2023/07/30 11:40:41;;;;;;;;;;;22.10;77.00;;;;;;4158300;28;19932;-44
2023/07/30 11:43:22;;;;;;;;;;;22.10;77.00;;;;;;4155365;28;20292;-44
2023/07/30 11:46:11;;;;;;;;;;;22.10;77.80;;;;;;4188319;28;19931;-46
2023/07/30 11:48:53;;;;;;;;;;;22.10;76.80;;;;;;4187625;28;19935;-46
2023/07/30 11:51:35;;;;;;;;;;;22.20;76.80;;;;;;4189116;28;19930;-44
2023/07/30 11:54:20;;;;;;;;;;;22.20;76.70;;;;;;4176100;28;19952;-54
2023/07/30 11:57:01;;;;;;;;;;;22.20;76.60;;;;;;4155906;28;20288;-55
2023/07/30 11:59:42;;;;;;;;;;;22.20;76.10;;;;;;4154356;28;19936;-55
2023/07/30 12:02:22;;;;;;;;;;;22.30;75.40;;;;;;4156355;28;19932;-43
2023/07/30 12:05:03;;;;;;;;;;;22.30;75.30;;;;;;4155418;28;19936;-45
2023/07/30 12:07:53;;;;;;;;;;;22.30;75.30;;;;;;4160850;28;20013;-43
2023/07/30 12:10:44;;;;;;;;;;;22.30;74.50;;;;;;4171683;28;19951;-56
2023/07/30 12:13:25;;;;;;;;;;;22.30;74.30;;;;;;4172398;28;19932;-54
2023/07/30 12:16:06;;;;;;;;;;;22.30;74.20;;;;;;4186956;28;19931;-54
2023/07/30 12:18:46;;;;;;;;;;;22.30;74.00;;;;;;4170938;28;19932;-54
2023/07/30 12:21:27;;;;;;;;;;;22.40;73.70;;;;;;4161609;28;20003;-53
2023/07/30 12:24:09;;;;;;;;;;;22.30;73.40;;;;;;4172397;28;20086;-54
2023/07/30 12:26:50;;;;;;;;;;;22.30;73.60;;;;;;4152060;28;19968;-53
2023/07/30 12:29:34;;;;;;;;;;;22.30;73.40;;;;;;4168700;28;19932;-56
2023/07/30 12:32:15;;;;;;;;;;;22.30;73.50;;;;;;4175550;28;19973;-57
2023/07/30 12:34:56;;;;;;;;;;;22.30;73.80;;;;;;4136923;28;19952;-55
2023/07/30 12:37:37;;;;;;;;;;;22.20;74.00;;;;;;4155226;28;19932;-54
2023/07/30 12:40:19;;;;;;;;;;;22.20;74.30;;;;;;4155166;28;19983;-55
2023/07/30 12:43:01;;;;;;;;;;;22.20;74.60;;;;;;4139910;28;20015;-45
2023/07/30 12:45:42;;;;;;;;;;;22.20;74.90;;;;;;4150916;28;19974;-53
2023/07/30 12:48:23;;;;;;;;;;;22.20;75.00;;;;;;4170653;28;20055;-53
2023/07/30 12:51:03;;;;;;;;;;;22.20;75.30;;;;;;4159048;28;19932;-51
2023/07/30 12:53:44;;;;;;;;;;;22.20;75.50;;;;;;4170511;28;20009;-53
2023/07/30 12:56:26;;;;;;;;;;;22.20;75.60;;;;;;4169762;28;20066;-52
2023/07/30 12:59:08;;;;;;;;;;;22.10;75.90;;;;;;4168635;28;20038;-56
2023/07/30 13:01:48;;;;;;;;;;;22.20;75.90;;;;;;4168636;28;20413;-55
2023/07/30 13:04:30;;;;;;;;;;;22.20;76.00;;;;;;4162495;28;20074;-54
2023/07/30 13:07:11;;;;;;;;;;;22.20;76.10;;;;;;4169595;28;19975;-52
2023/07/30 13:10:02;;;;;;;;;;;22.20;75.90;;;;;;4166696;28;19939;-56
2023/07/30 13:12:44;;;;;;;;;;;22.20;75.90;;;;;;4167792;28;19939;-55
2023/07/30 13:15:25;;;;;;;;;;;22.20;75.80;;;;;;4142641;28;20072;-51
2023/07/30 13:18:06;;;;;;;;;;;22.20;75.80;;;;;;4152082;28;19994;-53
2023/07/30 13:20:47;;;;;;;;;;;22.30;75.90;;;;;;4163486;28;20403;-55
2023/07/30 13:23:28;;;;;;;;;;;22.30;75.80;;;;;;4164307;28;20307;-51
2023/07/30 13:26:09;;;;;;;;;;;22.30;75.80;;;;;;4168304;28;19936;-56
2023/07/30 13:28:51;;;;;;;;;;;22.30;75.90;;;;;;4154918;28;19936;-53
2023/07/30 13:31:32;;;;;;;;;;;22.30;76.90;;;;;;4147549;28;20436;-54
2023/07/30 13:34:13;;;;;;;;;;;22.30;76.00;;;;;;4147629;28;20422;-54
2023/07/30 13:36:54;;;;;;;;;;;22.30;75.80;;;;;;4163278;28;19935;-54
2023/07/30 13:39:35;;;;;;;;;;;22.40;76.60;;;;;;4133666;28;19931;-54
2023/07/30 13:42:16;;;;;;;;;;;22.40;75.70;;;;;;4154164;28;19932;-42
2023/07/30 13:44:58;;;;;;;;;;;22.40;75.60;;;;;;4139555;28;19936;-42
2023/07/30 13:47:40;;;;;;;;;;;22.40;75.50;;;;;;4169279;28;19974;-46
2023/07/30 13:50:21;;;;;;;;;;;22.40;75.30;;;;;;4168854;28;19947;-46
2023/07/30 13:53:02;;;;;;;;;;;22.40;75.00;;;;;;4141219;28;19940;-45
2023/07/30 13:55:43;;;;;;;;;;;22.40;75.00;;;;;;4153692;28;20372;-41
2023/07/30 13:58:24;;;;;;;;;;;22.40;75.00;;;;;;4166847;28;19935;-41
2023/07/30 14:01:08;;;;;;;;;;;22.40;74.90;;;;;;4168102;28;19951;-43
2023/07/30 14:03:49;;;;;;;;;;;22.40;74.80;;;;;;4168224;28;19932;-55
2023/07/30 14:06:30;;;;;;;;;;;22.40;74.30;;;;;;4167764;28;19990;-53
2023/07/30 14:09:11;;;;;;;;;;;22.50;74.30;;;;;;4168032;28;20296;-53
2023/07/30 14:11:52;;;;;;;;;;;22.50;73.80;;;;;;4156076;28;19983;-55
2023/07/30 14:14:33;;;;;;;;;;;22.50;73.50;;;;;;4141525;28;19932;-55
2023/07/30 14:17:15;;;;;;;;;;;22.60;73.00;;;;;;4164200;28;20452;-43
2023/07/30 14:19:56;;;;;;;;;;;22.60;72.80;;;;;;4156703;28;19931;-52
2023/07/30 14:22:37;;;;;;;;;;;22.60;72.00;;;;;;4168707;28;19931;-52
2023/07/30 14:25:18;;;;;;;;;;;22.70;71.60;;;;;;4143103;28;19936;-54
2023/07/30 14:27:59;;;;;;;;;;;22.60;71.10;;;;;;4156939;28;19932;-45
2023/07/30 14:30:44;;;;;;;;;;;22.70;70.90;;;;;;4158478;28;20055;-43
2023/07/30 14:33:26;;;;;;;;;;;22.70;71.00;;;;;;4167481;28;20031;-45
2023/07/30 14:36:07;;;;;;;;;;;22.70;71.00;;;;;;4167565;28;19936;-43
2023/07/30 14:38:48;;;;;;;;;;;22.60;71.00;;;;;;4167417;28;19936;-41
2023/07/30 14:41:29;;;;;;;;;;;22.70;71.20;;;;;;4170735;28;19946;-44
2023/07/30 14:44:10;;;;;;;;;;;22.70;71.20;;;;;;4169900;28;20316;-48
2023/07/30 14:46:50;;;;;;;;;;;22.70;70.90;;;;;;4159004;28;20405;-44
2023/07/30 14:49:32;;;;;;;;;;;22.70;70.80;;;;;;4157266;28;19939;-45
2023/07/30 14:52:13;;;;;;;;;;;22.70;70.50;;;;;;4170527;28;19975;-48
2023/07/30 14:54:53;;;;;;;;;;;22.70;70.10;;;;;;4154555;28;19936;-43
2023/07/30 14:57:35;;;;;;;;;;;22.70;70.00;;;;;;4171897;28;19988;-44
2023/07/30 15:00:16;;;;;;;;;;;22.70;69.90;;;;;;4170886;28;20390;-42
2023/07/30 15:02:57;;;;;;;;;;;22.80;69.90;;;;;;4172375;28;19931;-42
2023/07/30 15:05:40;;;;;;;;;;;22.80;69.90;;;;;;4171792;28;19944;-50
2023/07/30 15:08:20;;;;;;;;;;;22.70;69.90;;;;;;4167967;28;20428;-45
2023/07/30 15:11:02;;;;;;;;;;;22.70;70.10;;;;;;4170659;28;19936;-44
2023/07/30 15:13:42;;;;;;;;;;;22.70;70.30;;;;;;4156135;28;19936;-44
2023/07/30 15:16:23;;;;;;;;;;;22.70;70.70;;;;;;4157251;28;19939;-43
2023/07/30 15:19:04;;;;;;;;;;;22.60;71.00;;;;;;4163106;28;20070;-45
2023/07/30 15:21:46;;;;;;;;;;;22.60;71.30;;;;;;4168452;28;19932;-54
2023/07/30 15:24:27;;;;;;;;;;;22.60;71.60;;;;;;4169827;28;20019;-55
2023/07/30 15:27:08;;;;;;;;;;;22.50;71.90;;;;;;4153119;28;19979;-54
2023/07/30 15:29:49;;;;;;;;;;;22.50;72.30;;;;;;4156828;28;19932;-55
2023/07/30 15:32:30;;;;;;;;;;;22.40;72.60;;;;;;4156325;28;20079;-53
2023/07/30 15:35:11;;;;;;;;;;;22.40;73.00;;;;;;4169076;28;20813;-54
2023/07/30 15:37:54;;;;;;;;;;;22.40;73.40;;;;;;4157988;28;19955;-51